createdAt,value
2022-09-23T00:00:43.099Z,10.10
2022-09-23T00:03:10.496Z,10.10
2022-09-23T00:05:37.508Z,10.10
2022-09-23T00:08:07.729Z,10.10
2022-09-23T00:10:37.333Z,10.00
2022-09-23T00:13:05.209Z,10.00
2022-09-23T00:15:33.646Z,10.00
2022-09-23T00:17:59.861Z,10.00
2022-09-23T00:20:26.004Z,10.00
2022-09-23T00:22:52.670Z,10.00
2022-09-23T00:25:18.772Z,9.90
2022-09-23T00:27:44.925Z,9.90
2022-09-23T00:30:11.288Z,10.00
2022-09-23T00:32:37.859Z,10.00
2022-09-23T00:35:04.948Z,9.90
2022-09-23T00:37:31.362Z,9.90
2022-09-23T00:39:59.777Z,9.90
2022-09-23T00:42:26.577Z,9.90
2022-09-23T00:44:58.173Z,9.80
2022-09-23T00:47:29.150Z,9.80
2022-09-23T00:50:17.844Z,9.80
2022-09-23T00:52:43.900Z,9.80
2022-09-23T00:55:12.400Z,9.70
2022-09-23T00:57:39.461Z,9.70
2022-09-23T01:00:06.293Z,9.70
2022-09-23T01:02:32.758Z,9.70
2022-09-23T01:05:00.274Z,9.70
2022-09-23T01:07:26.505Z,9.70
2022-09-23T01:09:52.625Z,9.70
2022-09-23T01:12:37.347Z,9.70
2022-09-23T01:15:17.442Z,9.70
2022-09-23T01:17:58.842Z,9.60
2022-09-23T01:20:33.203Z,9.60
2022-09-23T01:23:02.028Z,9.50
2022-09-23T01:25:40.406Z,9.50
2022-09-23T01:28:39.117Z,9.50
2022-09-23T01:31:14.640Z,9.50
2022-09-23T01:33:56.029Z,9.50
2022-09-23T01:36:34.383Z,9.50
2022-09-23T01:39:03.387Z,9.50
2022-09-23T01:41:35.094Z,9.50
2022-09-23T01:44:09.975Z,9.50
2022-09-23T01:46:56.257Z,9.50
2022-09-23T01:49:31.981Z,9.50
2022-09-23T01:52:00.805Z,9.50
2022-09-23T01:54:38.179Z,9.50
2022-09-23T01:57:10.618Z,9.50
2022-09-23T01:59:42.844Z,9.50
2022-09-23T02:02:08.808Z,9.50
2022-09-23T02:04:38.972Z,9.50
2022-09-23T02:07:20.142Z,9.50
2022-09-23T02:09:50.100Z,9.50
2022-09-23T02:12:18.422Z,9.40
2022-09-23T02:14:53.491Z,9.40
2022-09-23T02:17:25.840Z,9.40
2022-09-23T02:20:00.848Z,9.40
2022-09-23T02:22:29.333Z,9.40
2022-09-23T02:24:56.602Z,9.30
2022-09-23T02:27:36.279Z,9.30
2022-09-23T02:30:19.774Z,9.30
2022-09-23T02:32:55.736Z,9.30
2022-09-23T02:35:24.851Z,9.20
2022-09-23T02:37:56.986Z,9.20
2022-09-23T02:40:43.266Z,9.20
2022-09-23T02:43:34.719Z,9.20
2022-09-23T02:46:03.993Z,9.20
2022-09-23T02:48:33.446Z,9.20
2022-09-23T02:51:01.876Z,9.10
2022-09-23T02:53:28.873Z,9.10
2022-09-23T02:55:54.918Z,9.10
2022-09-23T02:58:20.972Z,9.00
2022-09-23T03:00:56.535Z,9.00
2022-09-23T03:03:35.871Z,9.00
2022-09-23T03:06:07.222Z,9.00
2022-09-23T03:08:41.857Z,9.00
2022-09-23T03:11:09.882Z,9.00
2022-09-23T03:13:46.923Z,9.00
2022-09-23T03:16:27.990Z,8.90
2022-09-23T03:18:57.024Z,9.00
2022-09-23T03:21:27.881Z,9.00
2022-09-23T03:23:56.405Z,9.00
2022-09-23T03:26:33.711Z,9.00
2022-09-23T03:29:02.509Z,9.00
2022-09-23T03:31:29.264Z,9.00
2022-09-23T03:33:57.424Z,9.10
2022-09-23T03:36:48.698Z,9.10
2022-09-23T03:39:20.322Z,9.20
2022-09-23T03:41:50.181Z,9.20
2022-09-23T03:44:17.096Z,9.30
2022-09-23T03:46:48.912Z,9.40
2022-09-23T03:49:16.544Z,9.40
2022-09-23T03:51:44.678Z,9.50
2022-09-23T03:54:11.416Z,9.50
2022-09-23T03:56:37.384Z,9.50
2022-09-23T03:59:03.398Z,9.50
2022-09-23T04:01:29.362Z,9.60
2022-09-23T04:03:55.302Z,9.60
2022-09-23T04:06:21.757Z,9.70
2022-09-23T04:08:48.201Z,9.70
2022-09-23T04:11:14.197Z,9.80
2022-09-23T04:13:40.194Z,9.80
2022-09-23T04:16:06.225Z,9.80
2022-09-23T04:18:32.368Z,9.90
2022-09-23T04:20:59.083Z,9.90
2022-09-23T04:23:26.176Z,10.00
2022-09-23T04:25:53.011Z,10.10
2022-09-23T04:28:19.686Z,10.10
2022-09-23T04:30:46.566Z,10.20
2022-09-23T04:33:13.228Z,10.30
2022-09-23T04:35:40.465Z,10.30
2022-09-23T04:38:06.801Z,10.40
2022-09-23T04:40:33.459Z,10.40
2022-09-23T04:42:59.658Z,10.50
2022-09-23T04:45:29.525Z,10.50
2022-09-23T04:47:57.819Z,10.60
2022-09-23T04:50:26.785Z,10.60
2022-09-23T04:52:53.351Z,10.60
2022-09-23T04:55:19.528Z,10.70
2022-09-23T04:57:45.547Z,10.70
2022-09-23T05:00:11.803Z,10.70
2022-09-23T05:02:44.885Z,10.70
2022-09-23T05:05:11.045Z,10.70
2022-09-23T05:07:37.111Z,10.70
2022-09-23T05:10:03.186Z,10.80
2022-09-23T05:12:29.157Z,10.80
2022-09-23T05:14:55.589Z,10.80
2022-09-23T05:17:21.640Z,10.80
2022-09-23T05:19:47.655Z,10.80
2022-09-23T05:22:13.656Z,10.90
2022-09-23T05:24:39.699Z,10.90
2022-09-23T05:27:07.268Z,10.90
2022-09-23T05:29:34.308Z,11.00
2022-09-23T05:32:01.096Z,11.00
2022-09-23T05:34:27.925Z,11.00
2022-09-23T05:36:53.877Z,11.00
2022-09-23T05:39:19.877Z,11.10
2022-09-23T05:41:45.889Z,11.10
2022-09-23T05:44:11.900Z,11.20
2022-09-23T05:46:37.901Z,11.20
2022-09-23T05:49:04.782Z,11.20
2022-09-23T05:51:32.008Z,11.30
2022-09-23T05:53:58.900Z,11.30
2022-09-23T05:56:26.182Z,11.30
2022-09-23T05:58:53.157Z,11.30
2022-09-23T06:01:20.864Z,11.30
2022-09-23T06:03:47.592Z,11.40
2022-09-23T06:06:14.105Z,11.40
2022-09-23T06:08:40.420Z,11.50
2022-09-23T06:11:07.387Z,11.50
2022-09-23T06:13:37.508Z,11.50
2022-09-23T06:16:07.315Z,11.60
2022-09-23T06:18:33.837Z,11.60
2022-09-23T06:21:00.769Z,11.70
2022-09-23T06:23:26.830Z,11.70
2022-09-23T06:25:53.378Z,11.80
2022-09-23T06:28:19.680Z,11.80
2022-09-23T06:30:45.651Z,11.80
2022-09-23T06:33:11.757Z,11.90
2022-09-23T06:35:37.769Z,11.90
2022-09-23T06:38:04.392Z,11.90
2022-09-23T06:40:30.547Z,12.10
2022-09-23T06:42:58.086Z,12.20
2022-09-23T06:45:24.195Z,12.20
2022-09-23T06:47:55.685Z,12.30
2022-09-23T06:50:23.377Z,12.40
2022-09-23T06:52:56.320Z,12.50
2022-09-23T06:55:23.981Z,12.60
2022-09-23T06:57:50.242Z,12.70
2022-09-23T07:00:16.212Z,12.80
2022-09-23T07:02:42.354Z,12.90
2022-09-23T07:05:09.098Z,13.00
2022-09-23T07:07:38.913Z,13.10
2022-09-23T07:10:05.652Z,13.20
2022-09-23T07:12:32.372Z,13.30
2022-09-23T07:14:58.546Z,13.30
2022-09-23T07:17:25.059Z,13.40
2022-09-23T07:19:51.597Z,13.50
2022-09-23T07:22:17.985Z,13.60
2022-09-23T07:24:45.977Z,13.60
2022-09-23T07:27:15.900Z,13.70
2022-09-23T07:29:48.892Z,13.80
2022-09-23T07:32:15.945Z,13.90
2022-09-23T07:34:42.589Z,14.00
2022-09-23T07:37:08.624Z,14.20
2022-09-23T07:39:36.020Z,14.30
2022-09-23T07:42:04.475Z,14.50
2022-09-23T07:44:31.568Z,14.60
2022-09-23T07:46:58.092Z,14.80
2022-09-23T07:49:24.312Z,15.10
2022-09-23T07:51:50.707Z,15.40
2022-09-23T07:54:17.658Z,15.70
2022-09-23T07:56:43.650Z,16.00
2022-09-23T07:59:14.637Z,16.30
2022-09-23T08:01:43.468Z,16.50
2022-09-23T08:04:20.350Z,16.90
2022-09-23T08:06:47.839Z,17.20
2022-09-23T08:09:14.192Z,17.10
2022-09-23T08:11:41.184Z,17.10
2022-09-23T08:14:07.991Z,17.00
2022-09-23T08:16:34.974Z,17.00
2022-09-23T08:19:01.628Z,17.00
2022-09-23T08:21:27.661Z,17.10
2022-09-23T08:23:53.651Z,17.20
2022-09-23T08:26:22.080Z,17.30
2022-09-23T08:28:49.186Z,17.40
2022-09-23T08:31:15.355Z,17.40
2022-09-23T08:33:41.460Z,17.50
2022-09-23T08:36:07.680Z,17.60
2022-09-23T08:38:33.699Z,17.70
2022-09-23T08:41:16.749Z,17.90
2022-09-23T08:43:46.733Z,18.00
2022-09-23T08:46:16.298Z,18.20
2022-09-23T08:48:43.633Z,18.50
2022-09-23T08:51:20.596Z,18.90
2022-09-23T08:53:47.176Z,19.10
2022-09-23T08:56:18.695Z,19.20
2022-09-23T08:59:00.012Z,19.20
2022-09-23T09:01:30.279Z,19.20
2022-09-23T09:04:00.636Z,19.20
2022-09-23T09:06:51.886Z,19.00
2022-09-23T09:09:35.288Z,19.10
2022-09-23T09:12:10.941Z,19.10
2022-09-23T09:14:47.022Z,19.30
2022-09-23T09:17:17.249Z,19.60
2022-09-23T09:19:43.206Z,19.90
2022-09-23T09:22:19.128Z,20.10
2022-09-23T09:24:47.870Z,20.20
2022-09-23T09:27:13.956Z,20.30
2022-09-23T09:29:46.178Z,20.30
2022-09-23T09:32:13.293Z,20.40
2022-09-23T09:34:43.208Z,20.40
2022-09-23T09:37:12.163Z,20.50
2022-09-23T09:39:38.087Z,20.50
2022-09-23T09:42:05.308Z,20.30
2022-09-23T09:44:50.306Z,20.20
2022-09-23T09:47:27.734Z,20.00
2022-09-23T09:50:00.699Z,20.00
2022-09-23T09:52:31.074Z,20.00
2022-09-23T09:55:13.346Z,20.10
2022-09-23T09:57:43.961Z,20.20
2022-09-23T10:00:34.777Z,20.50
2022-09-23T10:03:02.326Z,20.80
2022-09-23T10:05:32.953Z,21.10
2022-09-23T10:08:17.793Z,21.30
2022-09-23T10:11:04.191Z,21.50
2022-09-23T10:13:31.109Z,21.50
2022-09-23T10:15:58.132Z,21.60
2022-09-23T10:18:24.803Z,21.70
2022-09-23T10:20:51.708Z,22.00
2022-09-23T10:23:21.777Z,22.20
2022-09-23T10:26:00.013Z,22.30
2022-09-23T10:28:38.697Z,22.30
2022-09-23T10:31:06.221Z,22.30
2022-09-23T10:33:32.327Z,22.30
2022-09-23T10:35:58.373Z,22.20
2022-09-23T10:38:24.621Z,22.10
2022-09-23T10:43:58.707Z,21.60
2022-09-23T10:46:38.273Z,21.40
2022-09-23T10:49:33.091Z,21.30
2022-09-23T10:52:14.780Z,21.20
2022-09-23T10:54:44.598Z,21.10
2022-09-23T10:57:39.847Z,20.90
2022-09-23T11:00:09.969Z,20.80
2022-09-23T11:02:55.645Z,20.70
2022-09-23T11:05:41.660Z,20.60
2022-09-23T11:08:17.649Z,20.50
2022-09-23T11:11:03.564Z,20.50
2022-09-23T11:13:29.624Z,20.40
2022-09-23T11:15:58.629Z,20.40
2022-09-23T11:18:43.726Z,20.40
2022-09-23T11:21:20.408Z,20.40
2022-09-23T11:23:50.654Z,20.50
2022-09-23T11:26:32.956Z,20.50
2022-09-23T11:29:11.589Z,20.60
2022-09-23T11:31:40.909Z,20.70
2022-09-23T11:34:25.798Z,20.80
2022-09-23T11:36:55.034Z,20.90
2022-09-23T11:39:27.615Z,21.10
2022-09-23T11:41:55.116Z,21.10
2022-09-23T11:44:29.424Z,21.20
2022-09-23T11:46:58.988Z,21.40
2022-09-23T11:49:27.258Z,21.50
2022-09-23T11:51:53.336Z,21.70
2022-09-23T11:54:22.162Z,21.90
2022-09-23T11:56:56.623Z,21.90
2022-09-23T11:59:41.331Z,22.00
2022-09-23T12:02:20.292Z,21.90
2022-09-23T12:05:02.965Z,21.80
2022-09-23T12:07:41.828Z,21.80
2022-09-23T12:10:07.974Z,21.80
2022-09-23T12:12:41.022Z,21.80
2022-09-23T12:15:10.361Z,21.60
2022-09-23T12:17:42.638Z,21.50
2022-09-23T12:20:18.067Z,21.40
2022-09-23T12:22:50.484Z,21.40
2022-09-23T12:25:46.321Z,21.30
2022-09-23T12:28:22.703Z,21.30
2022-09-23T12:30:49.985Z,21.20
2022-09-23T12:33:15.984Z,21.10
2022-09-23T12:35:42.360Z,21.10
2022-09-23T12:38:12.533Z,21.00
2022-09-23T12:40:41.233Z,20.90
2022-09-23T12:43:15.275Z,20.90
2022-09-23T12:45:41.811Z,21.00
2022-09-23T12:48:17.053Z,21.00
2022-09-23T12:51:01.846Z,21.00
2022-09-23T12:53:34.312Z,21.00
2022-09-23T12:56:01.606Z,21.00
2022-09-23T12:58:56.984Z,21.10
2022-09-23T13:01:25.781Z,21.20
2022-09-23T13:04:14.996Z,21.20
2022-09-23T13:06:44.186Z,21.30
2022-09-23T13:09:30.686Z,21.50
2022-09-23T13:12:00.899Z,21.60
2022-09-23T13:14:28.164Z,21.60
2022-09-23T13:16:56.523Z,21.60
2022-09-23T13:19:25.998Z,21.60
2022-09-23T13:22:08.835Z,21.50
2022-09-23T13:24:36.771Z,21.40
2022-09-23T13:27:07.851Z,21.30
2022-09-23T13:29:39.852Z,21.20
2022-09-23T13:32:12.442Z,21.00
2022-09-23T13:34:38.930Z,20.90
2022-09-23T13:37:22.052Z,20.80
2022-09-23T13:39:49.285Z,20.80
2022-09-23T13:42:34.725Z,20.80
2022-09-23T13:45:01.219Z,20.90
2022-09-23T13:47:28.933Z,21.10
2022-09-23T13:49:55.191Z,21.20
2022-09-23T13:52:24.441Z,21.40
2022-09-23T13:54:50.750Z,21.50
2022-09-23T13:57:31.096Z,21.50
2022-09-23T14:00:01.003Z,21.60
2022-09-23T14:02:28.228Z,21.70
2022-09-23T14:05:00.519Z,21.70
2022-09-23T14:07:26.578Z,21.70
2022-09-23T14:09:54.796Z,21.70
2022-09-23T14:12:23.897Z,21.70
2022-09-23T14:14:51.180Z,21.80
2022-09-23T14:17:18.426Z,21.70
2022-09-23T14:19:44.855Z,21.70
2022-09-23T14:22:24.923Z,21.60
2022-09-23T14:24:51.665Z,21.60
2022-09-23T14:27:28.189Z,21.50
2022-09-23T14:29:54.739Z,21.40
2022-09-23T14:32:23.672Z,21.40
2022-09-23T14:35:04.278Z,21.30
2022-09-23T14:37:58.936Z,21.20
2022-09-23T14:40:29.592Z,21.20
2022-09-23T14:43:02.109Z,21.10
2022-09-23T14:45:33.931Z,21.10
2022-09-23T14:48:20.340Z,21.00
2022-09-23T14:50:51.646Z,20.90
2022-09-23T14:53:23.701Z,20.80
2022-09-23T14:55:53.374Z,20.70
2022-09-23T14:58:22.333Z,20.60
2022-09-23T15:00:56.078Z,20.40
2022-09-23T15:03:22.364Z,20.40
2022-09-23T15:05:57.249Z,20.30
2022-09-23T15:08:25.611Z,20.20
2022-09-23T15:10:51.885Z,20.10
2022-09-23T15:13:23.069Z,20.00
2022-09-23T15:15:52.360Z,20.00
2022-09-23T15:18:22.556Z,19.90
2022-09-23T15:20:55.102Z,19.90
2022-09-23T15:23:36.522Z,19.80
2022-09-23T15:26:06.572Z,19.80
2022-09-23T15:28:33.086Z,19.80
2022-09-23T15:30:59.316Z,19.70
2022-09-23T15:33:28.149Z,19.70
2022-09-23T15:35:54.713Z,19.60
2022-09-23T15:38:21.316Z,19.60
2022-09-23T15:40:48.551Z,19.50
2022-09-23T15:43:22.841Z,19.50
2022-09-23T15:45:52.144Z,19.40
2022-09-23T15:48:21.999Z,19.40
2022-09-23T15:50:49.764Z,19.40
2022-09-23T15:53:20.912Z,19.40
2022-09-23T15:55:47.657Z,19.30
2022-09-23T15:58:13.725Z,19.20
2022-09-23T16:00:39.790Z,19.10
2022-09-23T16:03:06.047Z,19.10
2022-09-23T16:05:37.348Z,19.00
2022-09-23T16:08:08.694Z,19.00
2022-09-23T16:10:35.868Z,18.90
2022-09-23T16:13:05.202Z,18.80
2022-09-23T16:15:31.992Z,18.80
2022-09-23T16:18:00.260Z,18.70
2022-09-23T16:20:32.277Z,18.70
2022-09-23T16:23:08.921Z,18.60
2022-09-23T16:25:37.818Z,18.50
2022-09-23T16:28:05.297Z,18.50
2022-09-23T16:30:33.312Z,18.50
2022-09-23T16:33:00.358Z,18.40
2022-09-23T16:35:26.592Z,18.40
2022-09-23T16:37:52.854Z,18.30
2022-09-23T16:40:19.906Z,18.30
2022-09-23T16:42:49.857Z,18.20
2022-09-23T16:45:17.303Z,18.20
2022-09-23T16:47:44.173Z,18.10
2022-09-23T16:50:12.391Z,18.10
2022-09-23T16:52:39.078Z,18.00
2022-09-23T16:55:05.374Z,18.00
2022-09-23T16:57:31.419Z,18.00
2022-09-23T17:00:16.472Z,17.90
2022-09-23T17:03:06.139Z,17.90
2022-09-23T17:05:32.160Z,17.90
2022-09-23T17:08:01.039Z,17.80
2022-09-23T17:10:29.131Z,17.70
2022-09-23T17:12:55.271Z,17.70
2022-09-23T17:15:22.108Z,17.60
2022-09-23T17:17:48.560Z,17.50
2022-09-23T17:20:14.548Z,17.50
2022-09-23T17:22:41.997Z,17.40
2022-09-23T17:25:08.248Z,17.40
2022-09-23T17:27:34.693Z,17.40
2022-09-23T17:30:02.029Z,17.30
2022-09-23T17:32:28.252Z,17.30
2022-09-23T17:34:54.249Z,17.30
2022-09-23T17:37:20.365Z,17.20
2022-09-23T17:39:46.327Z,17.10
2022-09-23T17:42:15.720Z,17.10
2022-09-23T17:44:41.965Z,17.10
2022-09-23T17:47:08.356Z,17.00
2022-09-23T17:49:34.675Z,17.00
2022-09-23T17:52:05.710Z,16.90
2022-09-23T17:54:34.797Z,16.90
2022-09-23T17:57:01.170Z,16.90
2022-09-23T17:59:28.768Z,16.90
2022-09-23T18:01:54.849Z,16.80
2022-09-23T18:04:21.148Z,16.80
2022-09-23T18:06:48.554Z,16.80
2022-09-23T18:09:15.859Z,16.80
2022-09-23T18:11:46.169Z,16.80
2022-09-23T18:14:18.037Z,16.70
2022-09-23T18:16:45.550Z,16.70
2022-09-23T18:19:13.686Z,16.60
2022-09-23T18:21:41.005Z,16.60
2022-09-23T18:24:30.760Z,16.60
2022-09-23T18:26:55.723Z,16.60
2022-09-23T18:29:21.771Z,16.60
2022-09-23T18:31:50.283Z,16.60
2022-09-23T18:34:16.574Z,16.50
2022-09-23T18:36:42.869Z,16.50
2022-09-23T18:39:08.953Z,16.50
2022-09-23T18:41:34.924Z,16.50
2022-09-23T18:44:02.971Z,16.50
2022-09-23T18:46:29.695Z,16.50
2022-09-23T18:49:14.502Z,16.50
2022-09-23T18:52:07.001Z,16.50
2022-09-23T18:54:33.005Z,16.50
2022-09-23T18:56:59.458Z,16.50
2022-09-23T18:59:29.138Z,16.50
2022-09-23T19:01:55.841Z,16.50
2022-09-23T19:04:22.984Z,16.50
2022-09-23T19:06:49.270Z,16.50
2022-09-23T19:09:15.806Z,16.50
2022-09-23T19:11:42.332Z,16.50
2022-09-23T19:14:11.761Z,16.50
2022-09-23T19:16:39.398Z,16.50
2022-09-23T19:19:05.761Z,16.50
2022-09-23T19:21:33.039Z,16.40
2022-09-23T19:24:03.022Z,16.40
2022-09-23T19:26:33.937Z,16.40
2022-09-23T19:29:01.726Z,16.40
2022-09-23T19:31:29.335Z,16.40
2022-09-23T19:33:56.528Z,16.30
2022-09-23T19:36:24.104Z,16.30
2022-09-23T19:38:52.823Z,16.30
2022-09-23T19:41:19.680Z,16.30
2022-09-23T19:43:45.668Z,16.20
2022-09-23T19:46:11.924Z,16.20
2022-09-23T19:48:37.980Z,16.20
2022-09-23T19:51:06.748Z,16.20
2022-09-23T19:53:32.784Z,16.20
2022-09-23T19:56:02.323Z,16.10
2022-09-23T19:58:28.672Z,16.10
2022-09-23T20:00:54.703Z,16.10
2022-09-23T20:03:20.815Z,16.10
2022-09-23T20:05:53.900Z,16.00
2022-09-23T20:08:19.904Z,16.10
2022-09-23T20:10:47.478Z,16.00
2022-09-23T20:13:14.071Z,16.00
2022-09-23T20:15:40.306Z,16.00
2022-09-23T20:18:09.444Z,16.00
2022-09-23T20:20:36.064Z,16.00
2022-09-23T20:23:04.425Z,16.00
2022-09-23T20:25:51.474Z,16.00
2022-09-23T20:28:21.057Z,16.00
2022-09-23T20:30:48.423Z,16.00
2022-09-23T20:33:14.855Z,16.00
2022-09-23T20:35:43.408Z,16.00
2022-09-23T20:38:09.884Z,16.00
2022-09-23T20:40:38.308Z,15.90
2022-09-23T20:43:05.337Z,15.90
2022-09-23T20:45:31.786Z,15.90
2022-09-23T20:47:59.535Z,15.90
2022-09-23T20:50:25.749Z,15.90
2022-09-23T20:52:52.526Z,15.90
2022-09-23T20:55:18.605Z,15.80
2022-09-23T20:57:46.607Z,15.90
2022-09-23T21:00:12.961Z,15.90
2022-09-23T21:02:39.039Z,15.80
2022-09-23T21:05:05.446Z,15.80
2022-09-23T21:07:31.758Z,15.80
2022-09-23T21:10:03.661Z,15.80
2022-09-23T21:12:31.048Z,15.80
2022-09-23T21:14:57.140Z,15.80
2022-09-23T21:17:23.205Z,15.80
2022-09-23T21:19:49.368Z,15.80
2022-09-23T21:22:16.038Z,15.70
2022-09-23T21:27:29.904Z,15.70
2022-09-23T21:29:55.868Z,15.70
2022-09-23T21:32:24.544Z,15.70
2022-09-23T21:34:52.456Z,15.70
2022-09-23T21:37:18.615Z,15.70
2022-09-23T21:40:06.520Z,15.70
2022-09-23T21:42:33.053Z,15.60
2022-09-23T21:45:00.070Z,15.60
2022-09-23T21:47:26.882Z,15.60
2022-09-23T21:49:53.485Z,15.60
2022-09-23T21:52:19.703Z,15.60
2022-09-23T21:54:45.830Z,15.60
2022-09-23T21:57:13.220Z,15.60
2022-09-23T21:59:39.930Z,15.60
2022-09-23T22:02:05.969Z,15.60
2022-09-23T22:04:33.762Z,15.60
2022-09-23T22:07:00.113Z,15.60
2022-09-23T22:09:26.163Z,15.60
2022-09-23T22:12:04.879Z,15.70
2022-09-23T22:14:31.153Z,15.70
2022-09-23T22:16:58.598Z,15.70
2022-09-23T22:19:44.161Z,15.70
2022-09-23T22:22:12.993Z,15.70
2022-09-23T22:24:42.536Z,15.70
2022-09-23T22:27:09.313Z,15.70
2022-09-23T22:29:54.182Z,15.70
2022-09-23T22:32:35.289Z,15.70
2022-09-23T22:35:01.279Z,15.70
2022-09-23T22:37:35.224Z,15.70
2022-09-23T22:40:06.001Z,15.60
2022-09-23T22:42:32.293Z,15.60
2022-09-23T22:44:58.331Z,15.60
2022-09-23T22:47:24.358Z,15.50
2022-09-23T22:49:53.815Z,15.60
2022-09-23T22:52:23.779Z,15.60
2022-09-23T22:54:50.741Z,15.50
2022-09-23T22:57:16.773Z,15.60
2022-09-23T22:59:47.246Z,15.60
2022-09-23T23:02:17.686Z,15.60
2022-09-23T23:04:45.339Z,15.60
2022-09-23T23:07:20.858Z,15.60
2022-09-23T23:09:50.615Z,15.60
2022-09-23T23:12:18.299Z,15.60
2022-09-23T23:14:44.605Z,15.60
2022-09-23T23:17:10.773Z,15.60
2022-09-23T23:19:37.106Z,15.60
2022-09-23T23:22:04.273Z,15.60
2022-09-23T23:24:30.472Z,15.60
2022-09-23T23:26:56.776Z,15.60
2022-09-23T23:29:22.969Z,15.60
2022-09-23T23:31:49.416Z,15.60
2022-09-23T23:34:16.685Z,15.60
2022-09-23T23:36:43.250Z,15.60
2022-09-23T23:39:10.261Z,15.50
2022-09-23T23:41:37.213Z,15.50
2022-09-23T23:44:03.229Z,15.50
2022-09-23T23:46:30.249Z,15.50
2022-09-23T23:48:56.902Z,15.50
2022-09-23T23:51:25.228Z,15.50
2022-09-23T23:53:53.202Z,15.50
2022-09-23T23:56:20.202Z,15.40
2022-09-23T23:58:46.236Z,15.50
